Terminal Aerodrome Forecast
Issued by NWS

Home | Current Version | Previous Version | Text Only | Print | Product List | Glossary On
Versions: 1 2 3 4 5 6 7 8 9 10 11 12 13 14 15
605
FTUS45 KTFX 301910 AAA
TAFCTB
TAF AMD
KCTB 301910Z 3019/3118 30015G25KT P6SM FEW060
     FM310000 31015KT P6SM BKN200
     FM310800 34015KT P6SM VCSH BKN020
     FM311100 34015KT P6SM BKN030=

USA.gov is the U.S. government's official web portal to all federal, state and local government web resources and services.